EBAW/ANR METAR and TAF weather

Enter ICAO airport designator
Station Type Date Time Source
EBAW METAR 2022/06/28 14:20 UTC NOAA

EBAW 281420Z 13005KT 080V250 CAVOK 22/09 Q1018 NOSIG


Station Type Date Time Source
EBAW Decoded METAR 2022/06/28 14:20 UTC NOAA

Antwerpen / Deurne, Belgium (EBAW) 51-12N 004-28E 14M
Jun 28, 2022 - 10:20 AM EDT / 2022.06.28 1420 UTC
Wind: from the SE (130 degrees) at 6 MPH (5 KT) (direction variable):0
Visibility: greater than 7 mile(s):0
Temperature: 71 F (22 C)
Dew Point: 48 F (9 C)
Relative Humidity: 43%
Pressure (altimeter): 30.06 in. Hg (1018 hPa)
ob: EBAW 281420Z 13005KT 080V250 CAVOK 22/09 Q1018 NOSIG
cycle: 14

Station Type Date Time Source
EBAW TAF 2022/05/29 18:27 UTC NOAA

TAF TAF EBAW 291710Z 2918/3006 02006KT 9999 FEW025

Example: see airport list